createdAt,value
2019-03-20T00:01:48.171Z,22.53
2019-03-20T00:04:50.247Z,21.57
2019-03-20T00:07:52.295Z,23.33
2019-03-20T00:10:54.192Z,21.00
2019-03-20T00:13:56.298Z,22.57
2019-03-20T00:16:58.173Z,21.77
2019-03-20T00:20:00.350Z,23.13
2019-03-20T00:23:02.270Z,22.33
2019-03-20T00:26:05.587Z,22.33
2019-03-20T00:29:08.078Z,22.93
2019-03-20T00:32:11.069Z,21.27
2019-03-20T00:35:13.145Z,21.63
2019-03-20T00:38:15.015Z,21.43
2019-03-20T00:41:17.017Z,22.43
2019-03-20T00:44:18.964Z,22.27
2019-03-20T00:47:22.064Z,22.00
2019-03-20T00:50:24.061Z,22.43
2019-03-20T00:53:25.990Z,24.43
2019-03-20T00:56:27.977Z,25.43
2019-03-20T00:59:29.929Z,25.17
2019-03-20T01:02:31.868Z,25.40
2019-03-20T01:05:33.823Z,26.97
2019-03-20T01:08:35.700Z,26.17
2019-03-20T01:11:37.659Z,25.50
2019-03-20T01:14:39.852Z,24.77
2019-03-20T01:17:42.455Z,25.33
2019-03-20T01:20:44.335Z,25.63
2019-03-20T01:23:46.177Z,27.80
2019-03-20T01:26:48.091Z,26.47
2019-03-20T01:29:50.023Z,24.47
2019-03-20T01:32:51.997Z,31.03
2019-03-20T01:35:53.919Z,25.87
2019-03-20T01:38:55.901Z,26.70
2019-03-20T01:41:57.784Z,27.83
2019-03-20T01:44:59.764Z,29.13
2019-03-20T01:48:01.613Z,27.40
2019-03-20T01:51:17.898Z,27.93
2019-03-20T01:54:19.801Z,30.03
2019-03-20T01:57:21.693Z,30.53
2019-03-20T02:00:23.833Z,30.30
2019-03-20T02:03:25.858Z,30.03
2019-03-20T02:06:27.759Z,30.60
2019-03-20T02:09:29.710Z,32.43
2019-03-20T02:12:31.554Z,29.73
2019-03-20T02:15:38.698Z,31.67
2019-03-20T02:18:37.297Z,29.80
2019-03-20T02:21:39.217Z,30.83
2019-03-20T02:24:41.127Z,32.60
2019-03-20T02:27:43.151Z,30.90
2019-03-20T02:30:45.656Z,33.47
2019-03-20T02:33:47.524Z,31.80
2019-03-20T02:36:49.459Z,31.27
2019-03-20T02:39:51.334Z,31.33
2019-03-20T02:42:53.689Z,32.57
2019-03-20T02:45:55.588Z,32.73
2019-03-20T02:48:58.870Z,28.73
2019-03-20T02:52:03.813Z,30.37
2019-03-20T02:55:07.167Z,32.50
2019-03-20T02:58:09.310Z,31.83
2019-03-20T03:01:11.346Z,31.77
2019-03-20T03:04:13.315Z,31.00
2019-03-20T03:07:15.197Z,30.83
2019-03-20T03:10:18.414Z,31.93
2019-03-20T03:13:21.700Z,32.63
2019-03-20T03:16:23.658Z,30.33
2019-03-20T03:19:25.577Z,30.83
2019-03-20T03:22:27.566Z,32.03
2019-03-20T03:25:29.434Z,30.40
2019-03-20T03:28:31.326Z,30.63
2019-03-20T03:31:34.900Z,30.77
2019-03-20T03:34:36.824Z,29.03
2019-03-20T03:37:38.705Z,31.43
2019-03-20T03:40:42.390Z,29.30
2019-03-20T03:43:44.323Z,27.67
2019-03-20T03:46:46.161Z,29.93
2019-03-20T03:49:48.065Z,29.33
2019-03-20T03:52:50.003Z,29.93
2019-03-20T03:55:51.848Z,29.50
2019-03-20T03:58:53.781Z,31.23
2019-03-20T04:01:55.674Z,29.37
2019-03-20T04:04:57.714Z,27.83
2019-03-20T04:07:59.587Z,30.30
2019-03-20T04:11:01.461Z,30.50
2019-03-20T04:14:05.055Z,30.33
2019-03-20T04:17:22.190Z,28.57
2019-03-20T04:20:24.051Z,27.87
2019-03-20T04:23:25.962Z,29.00
2019-03-20T04:26:27.911Z,30.73
2019-03-20T04:29:29.862Z,27.00
2019-03-20T04:32:31.829Z,30.20
2019-03-20T04:35:33.706Z,29.93
2019-03-20T04:38:35.661Z,29.53
2019-03-20T04:41:37.547Z,30.37
2019-03-20T04:44:39.535Z,31.10
2019-03-20T04:47:41.467Z,28.80
2019-03-20T04:50:43.415Z,29.20
2019-03-20T04:53:45.299Z,29.37
2019-03-20T04:56:47.250Z,28.93
2019-03-20T04:59:49.162Z,29.67
2019-03-20T05:02:52.214Z,26.87
2019-03-20T05:05:54.175Z,29.17
2019-03-20T05:08:56.102Z,28.73
2019-03-20T05:11:58.035Z,28.97
2019-03-20T05:15:00.019Z,25.57
2019-03-20T05:18:01.985Z,27.93
2019-03-20T05:21:03.904Z,25.07
2019-03-20T05:24:05.813Z,24.93
2019-03-20T05:27:08.340Z,25.83
2019-03-20T05:30:12.201Z,26.00
2019-03-20T05:33:14.149Z,25.37
2019-03-20T05:36:16.105Z,25.30
2019-03-20T05:39:18.137Z,26.03
2019-03-20T05:42:20.025Z,23.67
2019-03-20T05:45:21.941Z,23.23
2019-03-20T05:48:23.812Z,22.60
2019-03-20T05:51:25.743Z,23.83
2019-03-20T05:54:28.785Z,23.87
2019-03-20T05:57:30.700Z,23.20
2019-03-20T06:00:34.430Z,23.77
2019-03-20T06:03:36.374Z,24.53
2019-03-20T06:06:38.378Z,23.20
2019-03-20T06:09:40.286Z,23.63
2019-03-20T06:12:42.264Z,20.67
2019-03-20T06:15:45.435Z,20.00
2019-03-20T06:18:47.503Z,21.07
2019-03-20T06:21:49.518Z,21.40
2019-03-20T06:24:51.420Z,19.57
2019-03-20T06:27:53.401Z,20.00
2019-03-20T06:30:55.309Z,19.50
2019-03-20T06:33:57.248Z,20.57
2019-03-20T06:36:59.074Z,19.37
2019-03-20T06:40:00.979Z,18.37
2019-03-20T06:43:02.927Z,18.00
2019-03-20T06:46:04.920Z,18.03
2019-03-20T06:49:07.926Z,18.07
2019-03-20T06:52:10.389Z,17.00
2019-03-20T06:55:13.383Z,17.47
2019-03-20T06:58:15.347Z,18.20
2019-03-20T07:01:20.870Z,19.70
2019-03-20T07:04:26.399Z,17.70
2019-03-20T07:07:43.210Z,16.07
2019-03-20T07:10:48.782Z,17.43
2019-03-20T07:13:50.809Z,13.57
2019-03-20T07:16:52.980Z,12.93
2019-03-20T07:19:55.148Z,14.37
2019-03-20T07:22:57.111Z,11.43
2019-03-20T07:25:59.067Z,9.87
2019-03-20T07:29:02.039Z,10.73
2019-03-20T07:32:03.894Z,10.37
2019-03-20T07:35:05.912Z,9.83
2019-03-20T07:38:09.049Z,9.13
2019-03-20T07:41:11.024Z,8.87
2019-03-20T07:44:12.990Z,7.83
2019-03-20T07:47:15.033Z,8.27
2019-03-20T07:50:17.085Z,8.00
2019-03-20T07:53:19.006Z,8.23
2019-03-20T07:56:20.908Z,9.33
2019-03-20T07:59:23.914Z,7.60
2019-03-20T08:02:27.017Z,9.80
2019-03-20T08:05:29.712Z,8.27
2019-03-20T08:08:31.826Z,8.43
2019-03-20T08:11:33.679Z,9.93
2019-03-20T08:14:35.610Z,8.00
2019-03-20T08:17:37.621Z,8.00
2019-03-20T08:20:39.723Z,8.63
2019-03-20T08:23:41.645Z,8.63
2019-03-20T08:26:45.156Z,8.30
2019-03-20T08:29:47.051Z,8.50
2019-03-20T08:32:49.481Z,7.17
2019-03-20T08:35:51.351Z,7.67
2019-03-20T08:38:53.264Z,6.53
2019-03-20T08:41:55.166Z,5.77
2019-03-20T08:44:57.146Z,6.23
2019-03-20T08:47:59.222Z,4.87
2019-03-20T08:51:01.139Z,7.90
2019-03-20T08:54:03.391Z,7.93
2019-03-20T08:57:05.353Z,7.73
2019-03-20T09:00:13.640Z,8.10
2019-03-20T09:03:15.618Z,6.10
2019-03-20T09:06:17.529Z,6.50
2019-03-20T09:09:19.463Z,6.80
2019-03-20T09:12:21.352Z,7.70
2019-03-20T09:15:23.259Z,5.97
2019-03-20T09:18:25.232Z,8.37
2019-03-20T09:21:27.262Z,6.33
2019-03-20T09:24:29.193Z,7.10
2019-03-20T09:27:33.424Z,6.93
2019-03-20T09:30:35.384Z,7.07
2019-03-20T09:33:37.326Z,4.10
2019-03-20T09:36:43.316Z,4.20
2019-03-20T09:39:43.169Z,4.30
2019-03-20T09:42:45.146Z,3.90
2019-03-20T09:45:47.105Z,4.17
2019-03-20T09:48:49.080Z,4.60
2019-03-20T09:51:51.028Z,5.67
2019-03-20T09:54:52.951Z,5.60
2019-03-20T09:57:55.012Z,5.67
2019-03-20T10:00:56.951Z,6.87
2019-03-20T10:03:58.917Z,4.67
2019-03-20T10:07:00.864Z,4.73
2019-03-20T10:10:06.307Z,4.87
2019-03-20T10:13:08.227Z,3.83
2019-03-20T10:16:10.183Z,3.30
2019-03-20T10:19:12.555Z,5.27
2019-03-20T10:22:14.642Z,11.83
2019-03-20T10:25:17.129Z,5.00
2019-03-20T10:28:19.093Z,3.80
2019-03-20T10:31:21.103Z,3.90
2019-03-20T10:34:23.011Z,2.80
2019-03-20T10:37:25.415Z,2.93
2019-03-20T10:40:27.814Z,2.70
2019-03-20T10:43:29.771Z,3.70
2019-03-20T10:46:31.695Z,3.13
2019-03-20T10:49:33.679Z,3.20
2019-03-20T10:52:35.648Z,3.20
2019-03-20T10:55:37.599Z,3.97
2019-03-20T10:58:39.689Z,3.37
2019-03-20T11:01:42.838Z,3.73
2019-03-20T11:04:45.289Z,3.20
2019-03-20T11:07:47.410Z,3.13
2019-03-20T11:10:49.318Z,2.50
2019-03-20T11:13:51.329Z,1.90
2019-03-20T11:16:53.236Z,2.63
2019-03-20T11:19:56.258Z,3.27
2019-03-20T11:22:58.471Z,3.60
2019-03-20T11:26:00.498Z,3.40
2019-03-20T11:29:02.446Z,3.17
2019-03-20T11:32:04.345Z,3.10
2019-03-20T11:35:06.262Z,3.33
2019-03-20T11:38:08.224Z,3.20
2019-03-20T11:41:10.202Z,3.20
2019-03-20T11:44:12.137Z,3.20
2019-03-20T11:47:14.087Z,3.77
2019-03-20T11:50:31.032Z,3.63
2019-03-20T11:53:32.964Z,3.10
2019-03-20T11:56:34.868Z,3.40
2019-03-20T11:59:36.843Z,2.70
2019-03-20T12:02:38.784Z,3.17
2019-03-20T12:05:40.741Z,3.93
2019-03-20T12:08:44.518Z,5.27
2019-03-20T12:11:46.470Z,9.73
2019-03-20T12:14:48.398Z,7.23
2019-03-20T12:17:51.590Z,3.07
2019-03-20T12:20:53.564Z,5.03
2019-03-20T12:23:55.583Z,3.27
2019-03-20T12:26:57.500Z,7.07
2019-03-20T12:29:59.459Z,31.53
2019-03-20T12:33:01.529Z,11.07
2019-03-20T12:36:03.491Z,12.40
2019-03-20T12:39:06.719Z,4.33
2019-03-20T12:42:08.654Z,3.90
2019-03-20T12:45:14.259Z,3.33
2019-03-20T12:48:17.518Z,4.00
2019-03-20T12:51:19.456Z,3.93
2019-03-20T12:54:21.345Z,5.53
2019-03-20T12:57:23.308Z,4.43
2019-03-20T13:00:27.570Z,4.73
2019-03-20T13:03:30.846Z,5.77
2019-03-20T13:06:33.072Z,5.03
2019-03-20T13:09:34.955Z,6.17
2019-03-20T13:12:36.915Z,4.90
2019-03-20T13:15:38.814Z,8.27
2019-03-20T13:18:40.783Z,7.50
2019-03-20T13:21:42.672Z,9.97
2019-03-20T13:24:44.776Z,7.60
2019-03-20T13:27:46.878Z,4.33
2019-03-20T13:31:04.759Z,7.43
2019-03-20T13:34:06.632Z,6.10
2019-03-20T13:37:08.730Z,4.73
2019-03-20T13:40:14.702Z,7.50
2019-03-20T13:43:15.452Z,5.37
2019-03-20T13:46:17.358Z,5.20
2019-03-20T13:49:19.269Z,3.80
2019-03-20T13:52:21.213Z,4.10
2019-03-20T13:55:23.237Z,7.63
2019-03-20T13:58:25.394Z,10.40
2019-03-20T14:01:27.253Z,4.40
2019-03-20T14:04:29.238Z,3.93
2019-03-20T14:07:31.245Z,4.00
2019-03-20T14:10:33.161Z,3.40
2019-03-20T14:13:35.180Z,4.73
2019-03-20T14:16:37.099Z,5.13
2019-03-20T14:19:39.030Z,4.63
2019-03-20T14:22:40.917Z,4.57
2019-03-20T14:25:42.971Z,7.50
2019-03-20T14:28:44.985Z,4.77
2019-03-20T14:31:47.575Z,8.33
2019-03-20T14:34:49.490Z,9.67
2019-03-20T14:37:51.439Z,4.37
2019-03-20T14:40:53.382Z,5.47
2019-03-20T14:43:55.364Z,5.67
2019-03-20T14:46:57.237Z,4.90
2019-03-20T14:49:59.446Z,6.07
2019-03-20T14:53:01.489Z,8.30
2019-03-20T14:56:03.528Z,5.13
2019-03-20T14:59:05.447Z,6.13
2019-03-20T15:02:07.374Z,4.87
2019-03-20T15:05:09.732Z,4.50
2019-03-20T15:08:11.700Z,4.13
2019-03-20T15:11:13.677Z,8.50
2019-03-20T15:14:15.640Z,4.30
2019-03-20T15:17:17.538Z,4.70
2019-03-20T15:20:19.506Z,5.13
2019-03-20T15:23:21.436Z,3.63
2019-03-20T15:26:23.568Z,5.30
2019-03-20T15:29:25.525Z,4.57
2019-03-20T15:32:28.107Z,5.47
2019-03-20T15:35:30.059Z,3.97
2019-03-20T15:38:32.030Z,4.93
2019-03-20T15:41:34.028Z,4.23
2019-03-20T15:44:36.031Z,5.07
2019-03-20T15:47:38.095Z,5.00
2019-03-20T15:50:40.086Z,4.57
2019-03-20T15:53:41.981Z,4.23
2019-03-20T15:56:43.951Z,5.03
2019-03-20T15:59:45.892Z,4.83
2019-03-20T16:02:50.025Z,5.33
2019-03-20T16:05:52.027Z,5.33
2019-03-20T16:08:56.693Z,5.43
2019-03-20T16:11:58.032Z,4.30
2019-03-20T16:15:00.306Z,5.03
2019-03-20T16:18:02.350Z,6.27
2019-03-20T16:21:04.418Z,6.60
2019-03-20T16:24:06.526Z,6.87
2019-03-20T16:27:08.593Z,5.80
2019-03-20T16:30:15.892Z,6.17
2019-03-20T16:33:18.368Z,7.03
2019-03-20T16:36:20.357Z,6.47
2019-03-20T16:39:22.377Z,7.47
2019-03-20T16:42:24.466Z,5.97
2019-03-20T16:45:31.577Z,6.53
2019-03-20T16:48:33.951Z,6.87
2019-03-20T16:51:36.423Z,7.07
2019-03-20T16:54:38.323Z,6.83
2019-03-20T16:57:40.301Z,6.33
2019-03-20T17:00:43.806Z,6.23
2019-03-20T17:03:45.679Z,7.13
2019-03-20T17:06:47.666Z,7.57
2019-03-20T17:09:49.639Z,7.13
2019-03-20T17:12:51.523Z,8.00
2019-03-20T17:15:53.863Z,7.13
2019-03-20T17:18:55.763Z,7.10
2019-03-20T17:21:58.378Z,8.27
2019-03-20T17:25:00.357Z,9.87
2019-03-20T17:28:02.677Z,11.23
2019-03-20T17:31:04.585Z,12.97
2019-03-20T17:34:06.545Z,12.63
2019-03-20T17:37:08.999Z,14.40
2019-03-20T17:40:14.689Z,18.73
2019-03-20T17:43:16.623Z,17.17
2019-03-20T17:46:18.575Z,16.83
2019-03-20T17:49:22.837Z,14.50
2019-03-20T17:52:27.172Z,15.73
2019-03-20T17:55:31.767Z,13.30
2019-03-20T17:58:35.575Z,13.47
2019-03-20T18:01:37.501Z,14.57
2019-03-20T18:04:39.519Z,13.30
2019-03-20T18:07:43.326Z,11.07
2019-03-20T18:10:45.312Z,11.50
2019-03-20T18:13:47.687Z,12.77
2019-03-20T18:16:51.331Z,14.87
2019-03-20T18:19:53.582Z,16.33
2019-03-20T18:22:55.477Z,17.63
2019-03-20T18:25:57.454Z,20.50
2019-03-20T18:28:59.455Z,23.03
2019-03-20T18:32:01.438Z,24.30
2019-03-20T18:35:06.077Z,24.77
2019-03-20T18:38:08.111Z,26.37
2019-03-20T18:41:11.953Z,26.00
2019-03-20T18:44:16.140Z,26.93
2019-03-20T18:47:18.080Z,26.67
2019-03-20T18:50:30.252Z,27.10
2019-03-20T18:53:33.672Z,28.87
2019-03-20T18:56:36.121Z,29.60
2019-03-20T18:59:40.691Z,31.47
2019-03-20T19:02:42.718Z,29.57
2019-03-20T19:05:50.498Z,30.43
2019-03-20T19:08:52.539Z,30.67
2019-03-20T19:11:54.570Z,31.77
2019-03-20T19:14:58.334Z,32.10
2019-03-20T19:18:02.098Z,30.87
2019-03-20T19:21:04.014Z,32.37
2019-03-20T19:24:06.009Z,32.97
2019-03-20T19:27:07.929Z,33.30
2019-03-20T19:30:17.198Z,36.90
2019-03-20T19:33:20.653Z,40.27
2019-03-20T19:36:24.696Z,36.37
2019-03-20T19:39:28.725Z,37.60
2019-03-20T19:42:32.182Z,33.67
2019-03-20T19:45:34.187Z,35.77
2019-03-20T19:48:36.129Z,35.37
2019-03-20T19:51:38.030Z,38.00
2019-03-20T19:54:39.950Z,38.20
2019-03-20T19:57:41.902Z,38.30
2019-03-20T20:00:47.399Z,41.57
2019-03-20T20:03:51.669Z,42.97
2019-03-20T20:06:55.439Z,44.67
2019-03-20T20:09:57.459Z,47.60
2019-03-20T20:13:01.470Z,48.63
2019-03-20T20:16:05.824Z,48.53
2019-03-20T20:19:07.718Z,47.43
2019-03-20T20:22:09.692Z,46.53
2019-03-20T20:25:14.168Z,45.17
2019-03-20T20:28:20.226Z,51.43
2019-03-20T20:31:22.245Z,49.30
2019-03-20T20:34:24.189Z,48.07
2019-03-20T20:37:29.170Z,48.70
2019-03-20T20:40:31.115Z,46.57
2019-03-20T20:43:33.042Z,45.33
2019-03-20T20:46:40.083Z,47.13
2019-03-20T20:49:42.127Z,43.70
2019-03-20T20:52:44.693Z,42.43
2019-03-20T20:55:46.762Z,43.07
2019-03-20T20:58:48.936Z,38.53
2019-03-20T21:01:50.838Z,39.83
2019-03-20T21:04:52.785Z,39.33
2019-03-20T21:07:55.392Z,44.27
2019-03-20T21:10:57.341Z,44.10
2019-03-20T21:13:59.282Z,43.03
2019-03-20T21:17:01.348Z,39.60
2019-03-20T21:20:04.528Z,45.30
2019-03-20T21:23:39.202Z,44.00
2019-03-20T21:27:05.921Z,45.37
2019-03-20T21:30:26.761Z,44.80
2019-03-20T21:33:35.262Z,43.07
2019-03-20T21:36:56.032Z,44.30
2019-03-20T21:39:58.005Z,45.73
2019-03-20T21:43:39.525Z,46.57
2019-03-20T21:47:02.040Z,41.87
2019-03-20T21:50:24.109Z,44.73
2019-03-20T21:53:47.714Z,44.03
2019-03-20T21:56:59.308Z,44.07
2019-03-20T22:00:07.905Z,46.50
2019-03-20T22:03:10.538Z,46.83
2019-03-20T22:06:50.933Z,49.03
2019-03-20T22:10:12.842Z,48.33
2019-03-20T22:13:24.218Z,47.57
2019-03-20T22:16:57.231Z,46.70
2019-03-20T22:20:08.589Z,47.13
2019-03-20T22:23:29.530Z,50.37
2019-03-20T22:26:54.996Z,52.83
2019-03-20T22:29:57.031Z,51.70
2019-03-20T22:33:33.973Z,48.13
2019-03-20T22:36:37.150Z,48.70
2019-03-20T22:40:14.637Z,53.07
2019-03-20T22:43:29.807Z,53.17
2019-03-20T22:47:02.602Z,50.70
2019-03-20T22:50:20.262Z,48.93
2019-03-20T22:53:45.228Z,50.43
2019-03-20T22:57:02.253Z,48.80
2019-03-20T23:00:09.897Z,53.13
2019-03-20T23:03:32.063Z,50.60
2019-03-20T23:06:33.973Z,51.70
2019-03-20T23:09:35.899Z,51.67
2019-03-20T23:12:39.616Z,52.10
2019-03-20T23:15:41.529Z,53.50
2019-03-20T23:18:43.453Z,53.87
2019-03-20T23:21:45.474Z,54.63
2019-03-20T23:24:47.380Z,54.33
2019-03-20T23:27:49.397Z,53.27
2019-03-20T23:30:51.335Z,54.33
2019-03-20T23:33:53.212Z,54.17
2019-03-20T23:36:55.200Z,53.10
2019-03-20T23:39:57.403Z,53.33
2019-03-20T23:43:08.827Z,52.20
2019-03-20T23:46:10.699Z,51.50
2019-03-20T23:49:16.140Z,52.37
2019-03-20T23:52:18.056Z,53.67
2019-03-20T23:55:20.074Z,50.33
2019-03-20T23:58:21.941Z,48.30
